Time;durP1;ratioP1;P1;durP2;ratioP2;P2;SDS_P1;SDS_P2;PMS_P1;PMS_P2;Temp;Humidity;BMP_temperature;BMP_pressure;BME280_temperature;BME280_humidity;BME280_pressure;Samples;Min_cycle;Max_cycle;Signal;HPM_P1;HPM_P2
2021/04/09 00:00:25;;;;;;;6.27;5.40;;;3.30;99.90;;;;;;5036834;28;20251;-76
2021/04/09 00:02:51;;;;;;;5.83;4.73;;;3.20;99.90;;;;;;5036394;28;20637;-76
2021/04/09 00:05:20;;;;;;;10.13;5.20;;;3.20;99.90;;;;;;5034377;28;20256;-76
2021/04/09 00:07:47;;;;;;;5.93;5.10;;;3.20;99.90;;;;;;5034440;28;20180;-77
2021/04/09 00:10:13;;;;;;;7.80;5.53;;;3.30;99.90;;;;;;5034131;28;20188;-76
2021/04/09 00:12:40;;;;;;;6.40;5.40;;;3.20;99.90;;;;;;5032879;28;20174;-76
2021/04/09 00:15:08;;;;;;;6.00;4.93;;;3.20;99.90;;;;;;5033066;28;20202;-76
2021/04/09 00:17:34;;;;;;;6.03;5.17;;;3.20;99.90;;;;;;5034520;28;20210;-76
2021/04/09 00:20:00;;;;;;;7.03;5.23;;;3.20;99.90;;;;;;5034084;28;20631;-75
2021/04/09 00:22:26;;;;;;;6.87;4.97;;;3.20;99.90;;;;;;5038597;28;20177;-75
2021/04/09 00:24:52;;;;;;;6.17;5.10;;;3.20;99.90;;;;;;5035261;28;20676;-76
2021/04/09 00:27:18;;;;;;;6.33;5.63;;;3.10;99.90;;;;;;5032898;28;20191;-75
2021/04/09 00:29:44;;;;;;;5.23;4.73;;;3.10;99.90;;;;;;5034049;28;20249;-76
2021/04/09 00:32:11;;;;;;;6.17;4.57;;;3.10;99.90;;;;;;5034054;28;20174;-76
2021/04/09 00:34:37;;;;;;;6.00;5.27;;;3.00;99.90;;;;;;5033900;28;20205;-76
2021/04/09 00:37:03;;;;;;;5.30;4.43;;;3.00;99.90;;;;;;5033712;28;20748;-78
2021/04/09 00:39:29;;;;;;;7.23;5.40;;;2.90;99.90;;;;;;5032666;28;20208;-76
2021/04/09 00:41:55;;;;;;;6.10;5.13;;;2.90;99.90;;;;;;5032887;28;20229;-76
2021/04/09 00:44:20;;;;;;;5.50;4.90;;;2.90;99.90;;;;;;5033501;28;20206;-76
2021/04/09 00:46:47;;;;;;;7.57;5.13;;;2.90;99.90;;;;;;5033751;28;20187;-76
2021/04/09 00:49:13;;;;;;;6.67;5.70;;;2.90;99.90;;;;;;5032051;28;20174;-76
2021/04/09 00:51:39;;;;;;;5.70;4.97;;;2.90;99.90;;;;;;5033561;28;20748;-76
2021/04/09 00:54:06;;;;;;;8.37;5.73;;;2.90;99.90;;;;;;5032224;28;20641;-75
2021/04/09 00:56:35;;;;;;;5.67;5.00;;;2.90;99.90;;;;;;5033535;28;20198;-76
2021/04/09 00:59:01;;;;;;;7.17;5.17;;;2.80;99.90;;;;;;5033428;28;20175;-76
2021/04/09 01:01:27;;;;;;;6.00;5.13;;;2.80;99.90;;;;;;5033528;28;20293;-76
2021/04/09 01:03:54;;;;;;;7.90;5.33;;;2.80;99.90;;;;;;5032400;28;20270;-75
2021/04/09 01:06:21;;;;;;;5.40;4.90;;;2.70;99.90;;;;;;5033423;28;20197;-76
2021/04/09 01:08:47;;;;;;;5.50;4.93;;;2.70;99.90;;;;;;5033683;28;20162;-76
2021/04/09 01:11:13;;;;;;;6.73;5.43;;;2.70;99.90;;;;;;5035349;28;20168;-75
2021/04/09 01:13:39;;;;;;;5.40;4.90;;;2.70;99.90;;;;;;5038107;28;20178;-75
2021/04/09 01:16:13;;;;;;;7.63;5.20;;;2.70;99.90;;;;;;5035908;28;20712;-76
2021/04/09 01:18:54;;;;;;;7.33;4.87;;;2.70;99.90;;;;;;5033488;28;20186;-76
2021/04/09 01:21:37;;;;;;;6.67;5.03;;;2.70;99.90;;;;;;5032478;28;20177;-76
2021/04/09 01:24:21;;;;;;;7.73;5.67;;;2.70;99.90;;;;;;5040317;28;20183;-75
2021/04/09 01:26:59;;;;;;;6.70;4.93;;;2.60;99.90;;;;;;5033286;28;20232;-76
2021/04/09 01:29:43;;;;;;;8.93;5.40;;;2.60;99.90;;;;;;5061418;22;20227;-75
2021/04/09 01:32:11;;;;;;;6.37;5.27;;;2.60;99.90;;;;;;5052078;28;20265;-75
2021/04/09 01:34:46;;;;;;;9.27;5.00;;;2.60;99.90;;;;;;5053240;28;20171;-74
2021/04/09 01:37:18;;;;;;;6.77;4.60;;;2.40;99.90;;;;;;5051868;28;20200;-75
2021/04/09 01:40:07;;;;;;;5.53;4.73;;;2.50;99.90;;;;;;5045910;28;20290;-75
2021/04/09 01:42:35;;;;;;;5.83;5.33;;;2.40;99.90;;;;;;5032878;28;20332;-75
2021/04/09 01:45:03;;;;;;;5.97;4.90;;;2.40;99.90;;;;;;5033141;28;20185;-75
2021/04/09 01:47:31;;;;;;;6.40;5.40;;;2.40;99.90;;;;;;5032529;28;20213;-75
2021/04/09 01:50:00;;;;;;;6.67;5.20;;;2.30;99.90;;;;;;5032945;28;20229;-74
2021/04/09 01:52:28;;;;;;;6.67;5.13;;;2.30;99.90;;;;;;5032658;28;20184;-74
2021/04/09 01:54:58;;;;;;;7.00;5.40;;;2.30;99.90;;;;;;5032932;28;20177;-75
2021/04/09 01:57:26;;;;;;;5.87;4.90;;;2.30;99.90;;;;;;5033016;28;20614;-75
2021/04/09 01:59:52;;;;;;;6.73;4.97;;;2.30;99.90;;;;;;5032712;28;20187;-75
2021/04/09 02:02:19;;;;;;;6.50;5.10;;;2.20;99.90;;;;;;5032870;28;20632;-76
2021/04/09 02:04:46;;;;;;;6.47;5.20;;;2.20;99.90;;;;;;5031193;28;20257;-75
2021/04/09 02:07:15;;;;;;;5.80;5.20;;;2.20;99.90;;;;;;5027999;28;20184;-75
2021/04/09 02:09:42;;;;;;;5.57;4.77;;;2.30;99.90;;;;;;5030318;28;20197;-75
2021/04/09 02:12:11;;;;;;;7.80;4.63;;;2.20;99.90;;;;;;5029293;28;20204;-75
2021/04/09 02:14:38;;;;;;;5.20;4.67;;;2.20;99.90;;;;;;5031423;28;20185;-74
2021/04/09 02:17:04;;;;;;;5.40;4.90;;;2.10;99.90;;;;;;5031095;28;20204;-75
2021/04/09 02:19:30;;;;;;;6.13;4.80;;;2.10;99.90;;;;;;5032361;28;20542;-75
2021/04/09 02:21:58;;;;;;;5.80;5.23;;;2.10;99.90;;;;;;5032268;28;20197;-75
2021/04/09 02:24:24;;;;;;;6.67;5.23;;;2.10;99.90;;;;;;5032467;28;20225;-75
2021/04/09 02:26:51;;;;;;;5.40;4.63;;;2.10;99.90;;;;;;5032221;28;20551;-75
2021/04/09 02:29:17;;;;;;;5.67;5.17;;;2.10;99.90;;;;;;5032242;28;20179;-75
2021/04/09 02:31:43;;;;;;;8.93;5.33;;;2.20;99.90;;;;;;5032298;28;20265;-74
2021/04/09 02:34:09;;;;;;;6.60;4.83;;;2.10;99.90;;;;;;5035066;28;20178;-75
2021/04/09 02:36:35;;;;;;;6.53;5.57;;;2.10;99.90;;;;;;5034865;28;20200;-74
2021/04/09 02:39:15;;;;;;;5.83;5.10;;;2.10;99.90;;;;;;5036288;28;20182;-74
2021/04/09 02:41:44;;;;;;;5.87;4.50;;;2.00;99.90;;;;;;5036211;28;20182;-75
2021/04/09 02:44:11;;;;;;;5.97;4.83;;;2.00;99.90;;;;;;5035979;28;20179;-74
2021/04/09 02:46:56;;;;;;;5.17;4.67;;;2.00;99.90;;;;;;5035146;28;20704;-74
2021/04/09 02:49:40;;;;;;;5.90;5.17;;;2.00;99.90;;;;;;5035806;28;20199;-75
2021/04/09 02:52:08;;;;;;;5.23;4.60;;;2.00;99.90;;;;;;5036062;28;20179;-75
2021/04/09 02:54:35;;;;;;;6.57;4.73;;;1.90;99.90;;;;;;5035690;28;20193;-75
2021/04/09 02:57:03;;;;;;;7.93;5.30;;;1.90;99.90;;;;;;5035723;28;20198;-75
2021/04/09 02:59:31;;;;;;;9.37;5.20;;;1.90;99.90;;;;;;5035714;28;20191;-75
2021/04/09 03:01:58;;;;;;;5.40;4.90;;;1.90;99.90;;;;;;5037065;28;20171;-75
2021/04/09 03:04:24;;;;;;;5.93;5.33;;;1.90;99.90;;;;;;5035361;28;20208;-75
2021/04/09 03:06:51;;;;;;;8.00;5.23;;;1.80;99.90;;;;;;5035334;28;20182;-75
2021/04/09 03:09:16;;;;;;;7.00;5.47;;;1.80;99.90;;;;;;5035096;28;20187;-75
2021/04/09 03:11:42;;;;;;;6.10;5.47;;;2.00;99.90;;;;;;5035239;28;20183;-75
2021/04/09 03:14:11;;;;;;;7.03;5.50;;;1.70;99.90;;;;;;5035145;28;20225;-74
2021/04/09 03:16:42;;;;;;;6.23;5.03;;;1.80;99.90;;;;;;5035120;28;20190;-74
2021/04/09 03:19:08;;;;;;;6.00;5.17;;;1.80;99.90;;;;;;5035148;28;20173;-75
2021/04/09 03:21:34;;;;;;;7.20;5.50;;;1.80;99.90;;;;;;5033793;28;20652;-74
2021/04/09 03:24:00;;;;;;;8.10;5.40;;;1.80;99.90;;;;;;5035082;28;20173;-75
2021/04/09 03:26:26;;;;;;;6.60;5.00;;;1.90;99.90;;;;;;5033605;28;20174;-75
2021/04/09 03:28:53;;;;;;;5.73;4.83;;;1.90;99.90;;;;;;5034962;28;20228;-75
2021/04/09 03:31:18;;;;;;;7.47;5.20;;;1.90;99.90;;;;;;5034432;28;20268;-75
2021/04/09 03:33:44;;;;;;;6.40;5.23;;;1.90;99.90;;;;;;5034395;28;20194;-75
2021/04/09 03:36:10;;;;;;;7.33;5.00;;;1.90;99.90;;;;;;5034537;28;20225;-75
2021/04/09 03:38:36;;;;;;;7.17;5.27;;;1.80;99.90;;;;;;5033587;28;20209;-75
2021/04/09 03:41:02;;;;;;;7.77;5.30;;;1.80;99.90;;;;;;5035193;28;20704;-74
2021/04/09 03:43:28;;;;;;;6.03;5.23;;;1.80;99.90;;;;;;5031495;28;20190;-74
2021/04/09 03:45:55;;;;;;;7.63;5.27;;;1.80;99.90;;;;;;5000320;28;20179;-74
2021/04/09 03:48:20;;;;;;;8.10;5.87;;;1.80;99.90;;;;;;5023891;28;20176;-74
2021/04/09 03:50:46;;;;;;;6.20;5.20;;;1.80;99.90;;;;;;5032533;28;20204;-74
2021/04/09 03:53:11;;;;;;;6.57;5.03;;;1.70;99.90;;;;;;5033908;28;20273;-75
2021/04/09 03:55:37;;;;;;;9.13;5.60;;;1.80;99.90;;;;;;5004876;28;20192;-76
2021/04/09 03:58:03;;;;;;;6.23;5.53;;;1.70;99.90;;;;;;5034106;28;20645;-75
2021/04/09 04:00:28;;;;;;;6.93;5.90;;;1.70;99.90;;;;;;5022613;28;20206;-74
2021/04/09 04:02:55;;;;;;;7.83;5.27;;;1.70;99.90;;;;;;5025215;28;20225;-75
2021/04/09 04:05:21;;;;;;;8.23;4.93;;;1.70;99.90;;;;;;5019124;28;20171;-74
2021/04/09 04:07:47;;;;;;;5.60;5.00;;;1.70;99.90;;;;;;5019083;28;20264;-75
2021/04/09 04:10:13;;;;;;;6.50;5.83;;;1.60;99.90;;;;;;5017889;28;20289;-74
2021/04/09 04:12:39;;;;;;;9.67;5.30;;;1.50;99.90;;;;;;5019241;28;20179;-75
2021/04/09 04:15:06;;;;;;;6.93;5.50;;;1.50;99.90;;;;;;5017199;28;20563;-75
2021/04/09 04:17:32;;;;;;;9.33;5.43;;;1.40;99.90;;;;;;5016550;28;20194;-75
2021/04/09 04:19:58;;;;;;;6.43;4.80;;;1.40;99.90;;;;;;5018131;28;20540;-74
2021/04/09 04:22:23;;;;;;;7.40;5.03;;;1.40;99.90;;;;;;5018651;28;20269;-75
2021/04/09 04:24:49;;;;;;;8.90;5.50;;;1.30;99.90;;;;;;5016570;28;20540;-74
2021/04/09 04:27:15;;;;;;;6.20;5.40;;;1.20;99.90;;;;;;5016831;28;20183;-75
2021/04/09 04:29:40;;;;;;;5.63;5.10;;;1.20;99.90;;;;;;5028884;28;20563;-75
2021/04/09 04:32:07;;;;;;;6.47;5.40;;;1.20;99.90;;;;;;5034933;28;20228;-75
2021/04/09 04:34:33;;;;;;;7.30;5.37;;;1.20;99.90;;;;;;5032198;28;20360;-74
2021/04/09 04:36:59;;;;;;;6.63;4.80;;;1.30;99.90;;;;;;5033165;28;20205;-74
2021/04/09 04:39:25;;;;;;;6.53;5.10;;;1.30;99.90;;;;;;5034478;28;20563;-74
2021/04/09 04:41:52;;;;;;;7.30;5.37;;;1.40;99.90;;;;;;5034419;28;20642;-75
2021/04/09 04:44:18;;;;;;;8.10;5.10;;;1.40;99.90;;;;;;5034407;28;20185;-74
2021/04/09 04:46:44;;;;;;;12.20;5.80;;;1.40;99.90;;;;;;5034479;28;20186;-74
2021/04/09 04:49:10;;;;;;;6.47;4.80;;;1.40;99.90;;;;;;5032924;28;20637;-75
2021/04/09 04:51:36;;;;;;;6.30;5.63;;;1.30;99.90;;;;;;5034119;28;20186;-74
2021/04/09 04:54:02;;;;;;;8.80;5.43;;;1.30;99.90;;;;;;5033224;28;20193;-75
2021/04/09 04:56:28;;;;;;;7.77;5.00;;;1.30;99.90;;;;;;5033312;28;20178;-75
2021/04/09 04:58:54;;;;;;;6.13;5.17;;;1.30;99.90;;;;;;5034489;28;20209;-74
2021/04/09 05:01:20;;;;;;;13.50;5.40;;;1.20;99.90;;;;;;5034299;28;20219;-74
2021/04/09 05:03:46;;;;;;;8.43;5.27;;;1.20;99.90;;;;;;5034086;28;20185;-74
2021/04/09 05:06:13;;;;;;;7.60;5.17;;;1.20;99.90;;;;;;5034013;28;20170;-75
2021/04/09 05:08:38;;;;;;;9.10;6.07;;;1.20;99.90;;;;;;5033685;28;20174;-75
2021/04/09 05:11:05;;;;;;;7.43;5.97;;;1.30;99.90;;;;;;5033729;28;20677;-75
2021/04/09 05:13:31;;;;;;;7.23;5.97;;;1.40;99.90;;;;;;5034413;28;20625;-74
2021/04/09 05:15:57;;;;;;;7.60;5.13;;;1.40;99.90;;;;;;5033619;28;20186;-74
2021/04/09 05:18:22;;;;;;;6.87;5.97;;;1.50;99.90;;;;;;5033984;28;20680;-74
2021/04/09 05:20:49;;;;;;;7.97;5.63;;;1.50;99.90;;;;;;5033665;28;20195;-74
2021/04/09 05:23:14;;;;;;;8.23;5.87;;;1.60;99.90;;;;;;5033686;28;20257;-74
2021/04/09 05:25:40;;;;;;;6.47;5.47;;;1.50;99.90;;;;;;5015786;28;20663;-74
2021/04/09 05:28:06;;;;;;;8.50;5.77;;;1.60;99.90;;;;;;5033540;28;20198;-75
2021/04/09 05:30:31;;;;;;;6.87;5.80;;;1.70;99.90;;;;;;5033563;28;20609;-75
2021/04/09 05:32:58;;;;;;;6.00;5.37;;;1.70;99.90;;;;;;5031757;28;20202;-74
2021/04/09 05:35:25;;;;;;;5.87;5.17;;;1.70;99.90;;;;;;5019517;28;20184;-74
2021/04/09 05:37:51;;;;;;;6.23;5.13;;;1.70;99.90;;;;;;5033441;28;20285;-74
2021/04/09 05:40:18;;;;;;;8.73;5.60;;;1.80;99.90;;;;;;5033581;28;20227;-75
2021/04/09 05:42:45;;;;;;;6.57;5.30;;;1.80;99.90;;;;;;5033651;28;20179;-74
2021/04/09 05:45:12;;;;;;;11.30;5.93;;;1.80;99.90;;;;;;5033304;28;20175;-74
2021/04/09 05:47:38;;;;;;;9.50;5.80;;;1.80;99.90;;;;;;5032985;28;20271;-75
2021/04/09 05:50:04;;;;;;;10.07;6.50;;;1.80;99.90;;;;;;5033207;28;20289;-74
2021/04/09 05:52:30;;;;;;;7.07;5.47;;;1.90;99.90;;;;;;5033135;28;20201;-74
2021/04/09 05:54:56;;;;;;;6.80;5.43;;;1.90;99.90;;;;;;5031989;28;20178;-74
2021/04/09 05:57:22;;;;;;;8.77;6.07;;;2.20;99.90;;;;;;5032937;28;20587;-75
2021/04/09 05:59:47;;;;;;;6.60;5.33;;;2.00;99.90;;;;;;5032810;28;20202;-74
2021/04/09 06:02:14;;;;;;;7.93;5.60;;;2.10;99.90;;;;;;5026746;28;20187;-74
2021/04/09 06:04:39;;;;;;;6.17;5.67;;;2.20;99.90;;;;;;5032310;28;20183;-74
2021/04/09 06:07:05;;;;;;;6.33;5.57;;;2.20;99.90;;;;;;5032643;28;20562;-74
2021/04/09 06:09:31;;;;;;;6.70;6.10;;;2.30;99.90;;;;;;5031480;28;20202;-75
2021/04/09 06:11:58;;;;;;;9.03;5.67;;;2.30;99.90;;;;;;5024538;28;20545;-75
2021/04/09 06:14:25;;;;;;;9.23;6.13;;;2.30;99.90;;;;;;5032264;28;20186;-74
2021/04/09 06:16:51;;;;;;;7.30;5.37;;;2.40;99.90;;;;;;5040304;28;20204;-75
2021/04/09 06:19:18;;;;;;;9.60;5.77;;;2.30;99.90;;;;;;5025822;28;20174;-74
2021/04/09 06:21:43;;;;;;;8.00;5.80;;;2.20;99.90;;;;;;5032308;28;20179;-75
2021/04/09 06:24:10;;;;;;;6.87;5.47;;;2.30;99.90;;;;;;5032578;28;20197;-75
2021/04/09 06:26:37;;;;;;;14.53;6.57;;;2.40;99.90;;;;;;5027266;28;20184;-75
2021/04/09 06:29:02;;;;;;;6.73;5.90;;;2.50;99.90;;;;;;5032322;28;20217;-74
2021/04/09 06:31:28;;;;;;;8.83;6.00;;;2.60;99.90;;;;;;5032717;28;20222;-75
2021/04/09 06:33:55;;;;;;;11.20;5.33;;;2.60;99.90;;;;;;5032846;28;20179;-74
2021/04/09 06:36:21;;;;;;;6.87;5.73;;;2.70;99.90;;;;;;5031452;28;20668;-75
2021/04/09 06:38:47;;;;;;;7.70;5.37;;;2.70;99.90;;;;;;5031362;28;20203;-75
2021/04/09 06:41:13;;;;;;;6.63;6.03;;;2.80;99.90;;;;;;5032707;28;20317;-75
2021/04/09 06:43:39;;;;;;;6.73;5.90;;;2.90;99.90;;;;;;5032752;28;20177;-75
2021/04/09 06:46:05;;;;;;;9.20;6.43;;;3.00;99.90;;;;;;5032523;28;20184;-74
2021/04/09 06:48:31;;;;;;;6.80;6.20;;;3.10;99.90;;;;;;5032215;28;20183;-75
2021/04/09 06:50:59;;;;;;;8.03;6.60;;;3.10;99.90;;;;;;5017359;28;20676;-74
2021/04/09 06:53:25;;;;;;;6.03;5.43;;;3.20;99.90;;;;;;5031031;28;20264;-74
2021/04/09 06:55:51;;;;;;;7.80;6.00;;;3.30;99.90;;;;;;5032175;28;20181;-74
2021/04/09 06:58:23;;;;;;;8.63;5.90;;;3.30;99.90;;;;;;5031175;28;20811;-74
2021/04/09 07:00:51;;;;;;;8.20;5.93;;;3.30;99.90;;;;;;5031229;28;20230;-74
2021/04/09 07:03:17;;;;;;;9.17;6.53;;;3.40;99.90;;;;;;5032718;28;20170;-74
2021/04/09 07:05:44;;;;;;;6.97;6.27;;;3.40;99.90;;;;;;5017535;28;20194;-75
2021/04/09 07:08:09;;;;;;;12.23;7.20;;;3.50;99.90;;;;;;5024201;28;20188;-74
2021/04/09 07:10:36;;;;;;;15.00;8.17;;;3.50;99.90;;;;;;5021887;28;20290;-74
2021/04/09 07:13:03;;;;;;;16.77;9.33;;;3.70;99.90;;;;;;5020501;28;20320;-75
2021/04/09 07:15:40;;;;;;;10.27;7.90;;;3.80;99.90;;;;;;5021683;28;20191;-74
2021/04/09 07:18:07;;;;;;;10.20;7.83;;;3.90;99.90;;;;;;5020030;28;20195;-75
2021/04/09 07:20:34;;;;;;;10.43;7.10;;;3.90;99.90;;;;;;5027372;28;20190;-75
2021/04/09 07:23:01;;;;;;;13.63;8.70;;;3.90;99.90;;;;;;5033621;28;20175;-74
2021/04/09 07:25:29;;;;;;;15.73;8.63;;;4.00;99.90;;;;;;5031847;28;20646;-74
2021/04/09 07:28:18;;;;;;;14.60;9.30;;;4.10;99.90;;;;;;5032537;28;20177;-74
2021/04/09 07:30:54;;;;;;;12.03;8.33;;;4.20;99.90;;;;;;5026956;28;20693;-75
2021/04/09 07:33:22;;;;;;;13.70;9.07;;;4.20;99.90;;;;;;5028795;28;20639;-75
2021/04/09 07:35:50;;;;;;;20.23;9.60;;;4.30;99.90;;;;;;5025898;28;20179;-75
2021/04/09 07:38:32;;;;;;;14.93;8.73;;;4.40;99.90;;;;;;5025804;28;20226;-75
2021/04/09 07:41:01;;;;;;;14.27;9.10;;;4.50;99.90;;;;;;5023867;28;20196;-75
2021/04/09 07:43:35;;;;;;;16.40;10.13;;;4.70;99.90;;;;;;5053917;22;20220;-76
2021/04/09 07:46:04;;;;;;;20.37;9.73;;;4.70;99.90;;;;;;5048137;28;20166;-79
2021/04/09 07:48:31;;;;;;;18.50;11.13;;;4.90;99.90;;;;;;5045944;28;20708;-76
2021/04/09 07:50:57;;;;;;;16.53;10.33;;;4.90;99.90;;;;;;5045223;28;20167;-76
2021/04/09 07:53:32;;;;;;;20.70;11.03;;;5.00;99.90;;;;;;5048807;28;20207;-75
2021/04/09 07:56:06;;;;;;;22.07;10.20;;;5.10;99.90;;;;;;5042679;28;20233;-75
2021/04/09 07:58:34;;;;;;;11.07;7.07;;;5.20;99.90;;;;;;5044144;28;20236;-76
2021/04/09 08:01:00;;;;;;;13.17;7.10;;;5.30;99.90;;;;;;5040817;28;20185;-76
2021/04/09 08:03:44;;;;;;;9.37;6.87;;;5.50;99.90;;;;;;5043585;28;20217;-75
2021/04/09 08:06:18;;;;;;;11.30;6.40;;;5.50;99.90;;;;;;5049219;28;20319;-77
2021/04/09 08:08:46;;;;;;;13.70;7.97;;;5.60;99.90;;;;;;5045522;28;20182;-75
2021/04/09 08:11:29;;;;;;;10.67;7.90;;;5.70;99.90;;;;;;5039435;28;20184;-76
2021/04/09 08:14:11;;;;;;;20.03;8.27;;;5.80;99.90;;;;;;5046776;28;20215;-75
2021/04/09 08:16:47;;;;;;;11.10;7.23;;;6.00;99.90;;;;;;5049725;28;20583;-76
2021/04/09 08:19:21;;;;;;;12.90;6.70;;;6.10;99.90;;;;;;5044791;28;20231;-76
2021/04/09 08:21:55;;;;;;;13.00;6.77;;;6.40;99.90;;;;;;5047801;28;20178;-75
2021/04/09 08:24:31;;;;;;;9.57;5.40;;;6.40;99.90;;;;;;5050446;28;20272;-76
2021/04/09 08:26:57;;;;;;;5.70;4.30;;;6.50;99.90;;;;;;5049942;28;20178;-75
2021/04/09 08:29:24;;;;;;;4.67;4.10;;;6.60;99.90;;;;;;5046666;28;20218;-76
2021/04/09 08:31:51;;;;;;;4.67;3.83;;;6.80;99.90;;;;;;5045317;28;20190;-75
2021/04/09 08:34:19;;;;;;;7.37;3.80;;;7.00;99.90;;;;;;5053539;28;20182;-76
2021/04/09 08:36:45;;;;;;;5.10;3.40;;;7.20;99.90;;;;;;5050849;28;20204;-76
2021/04/09 08:39:13;;;;;;;4.67;3.40;;;7.30;99.90;;;;;;5051976;28;20181;-75
2021/04/09 08:41:41;;;;;;;3.60;3.00;;;7.40;99.90;;;;;;5045920;28;20185;-76
2021/04/09 08:44:08;;;;;;;3.83;2.97;;;7.60;99.90;;;;;;5049474;28;20193;-75
2021/04/09 08:46:39;;;;;;;4.87;3.23;;;7.70;99.90;;;;;;5043082;28;20185;-75
2021/04/09 08:49:05;;;;;;;3.40;3.10;;;7.80;99.90;;;;;;5050428;28;20266;-76
2021/04/09 08:51:33;;;;;;;5.93;3.27;;;7.90;99.90;;;;;;5044416;28;20321;-76
2021/04/09 08:54:21;;;;;;;4.40;3.20;;;8.00;99.90;;;;;;5043085;28;20200;-76
2021/04/09 08:56:48;;;;;;;3.87;3.30;;;8.20;99.90;;;;;;5047183;28;20227;-77
2021/04/09 08:59:14;;;;;;;7.27;3.43;;;8.30;99.70;;;;;;5047104;28;20700;-76
2021/04/09 09:01:40;;;;;;;4.40;3.20;;;8.40;99.30;;;;;;5049035;28;20261;-75
2021/04/09 09:04:21;;;;;;;7.90;3.17;;;8.50;99.00;;;;;;5042459;28;20691;-76
2021/04/09 09:06:49;;;;;;;5.27;3.23;;;8.60;99.30;;;;;;5044891;28;20248;-75
2021/04/09 09:09:29;;;;;;;4.93;3.40;;;8.70;99.20;;;;;;5049341;28;20655;-77
2021/04/09 09:12:00;;;;;;;3.03;2.70;;;8.80;98.90;;;;;;5046911;28;20203;-76
2021/04/09 09:14:40;;;;;;;4.10;2.80;;;8.80;99.60;;;;;;5040266;28;20697;-76
2021/04/09 09:17:19;;;;;;;8.13;2.90;;;9.00;98.60;;;;;;5042620;28;20199;-76
2021/04/09 09:20:13;;;;;;;3.43;3.07;;;9.10;98.80;;;;;;5048623;28;20257;-76
2021/04/09 09:22:50;;;;;;;4.20;2.83;;;9.20;97.60;;;;;;5045006;28;20197;-76
2021/04/09 09:25:33;;;;;;;4.20;2.90;;;9.20;98.10;;;;;;5043767;28;20191;-76
2021/04/09 09:27:59;;;;;;;4.73;2.90;;;9.30;97.90;;;;;;5044982;28;20191;-75
2021/04/09 09:30:55;;;;;;;3.47;2.83;;;9.40;98.50;;;;;;5047977;28;20188;-76
2021/04/09 09:33:25;;;;;;;8.57;2.63;;;9.60;97.90;;;;;;5043120;28;20222;-76
2021/04/09 09:36:04;;;;;;;5.27;3.20;;;9.70;97.70;;;;;;5046942;28;20192;-76
2021/04/09 09:38:53;;;;;;;4.13;2.70;;;9.70;97.60;;;;;;5043404;28;20236;-77
2021/04/09 09:41:42;;;;;;;4.40;3.23;;;9.70;97.50;;;;;;5047791;28;20203;-75
2021/04/09 09:44:31;;;;;;;3.77;2.60;;;9.80;97.40;;;;;;5047167;28;20238;-76
2021/04/09 09:47:00;;;;;;;2.83;2.53;;;10.00;96.70;;;;;;5049127;28;20175;-76
2021/04/09 09:49:29;;;;;;;5.13;2.97;;;10.10;96.20;;;;;;5045040;28;20672;-76
2021/04/09 09:51:55;;;;;;;4.40;2.97;;;10.20;96.30;;;;;;5058201;28;20220;-77
2021/04/09 09:54:25;;;;;;;2.97;2.70;;;10.20;96.70;;;;;;5044746;28;20669;-77
2021/04/09 09:56:52;;;;;;;3.80;3.10;;;10.40;96.80;;;;;;5045412;28;20200;-75
2021/04/09 09:59:19;;;;;;;3.60;2.73;;;10.60;96.30;;;;;;5041061;28;20214;-77
2021/04/09 10:01:54;;;;;;;6.20;3.57;;;10.80;96.20;;;;;;5043581;28;20197;-77
2021/04/09 10:04:20;;;;;;;5.23;2.90;;;10.80;95.50;;;;;;5038651;28;20184;-77
2021/04/09 10:06:54;;;;;;;3.67;2.77;;;10.70;95.50;;;;;;5041354;28;20182;-77
2021/04/09 10:09:28;;;;;;;3.83;3.23;;;10.70;96.10;;;;;;5042365;28;20174;-77
2021/04/09 10:11:55;;;;;;;4.87;3.00;;;10.80;95.80;;;;;;5043031;28;20201;-77
2021/04/09 10:14:21;;;;;;;5.40;3.60;;;10.90;96.60;;;;;;5046821;28;20176;-77
2021/04/09 10:16:47;;;;;;;6.87;3.77;;;11.00;95.80;;;;;;5047286;28;20182;-77
2021/04/09 10:19:13;;;;;;;4.43;3.03;;;11.30;95.70;;;;;;5039647;28;20216;-77
2021/04/09 10:21:42;;;;;;;5.03;2.93;;;11.30;94.30;;;;;;5049763;28;20185;-75
2021/04/09 10:24:12;;;;;;;3.10;2.70;;;11.40;94.60;;;;;;5043248;28;20182;-76
2021/04/09 10:26:55;;;;;;;6.00;2.50;;;11.40;94.30;;;;;;5047714;28;20529;-76
2021/04/09 10:29:33;;;;;;;2.83;2.50;;;11.60;93.90;;;;;;5043549;28;20186;-75
2021/04/09 10:32:00;;;;;;;4.90;2.93;;;11.70;95.20;;;;;;5042440;28;20189;-74
2021/04/09 10:34:32;;;;;;;3.53;3.00;;;11.70;94.80;;;;;;5047086;28;20201;-77
2021/04/09 10:36:59;;;;;;;4.33;3.00;;;11.80;95.20;;;;;;5049569;28;20209;-76
2021/04/09 10:39:26;;;;;;;5.03;2.93;;;12.00;94.30;;;;;;5045304;28;20185;-76
2021/04/09 10:41:54;;;;;;;4.80;2.97;;;12.10;93.60;;;;;;5045691;28;20209;-76
2021/04/09 10:44:21;;;;;;;3.93;3.07;;;12.20;93.30;;;;;;5043218;28;20713;-76
2021/04/09 10:46:52;;;;;;;6.50;3.10;;;12.30;93.40;;;;;;5047323;28;20548;-76
2021/04/09 10:49:20;;;;;;;3.33;2.57;;;12.30;93.00;;;;;;5039010;28;20209;-77
2021/04/09 10:51:50;;;;;;;4.07;2.90;;;12.40;93.50;;;;;;5044104;28;20178;-75
2021/04/09 10:54:23;;;;;;;3.50;3.00;;;12.50;93.00;;;;;;5046677;28;20166;-75
2021/04/09 10:56:57;;;;;;;7.57;2.97;;;12.50;92.60;;;;;;5051498;28;20269;-76
2021/04/09 10:59:33;;;;;;;3.93;2.87;;;12.60;93.30;;;;;;5054518;28;20181;-76
2021/04/09 11:02:00;;;;;;;3.20;2.53;;;12.70;93.90;;;;;;5051834;28;20667;-77
2021/04/09 11:04:27;;;;;;;7.70;3.30;;;12.80;93.00;;;;;;5051774;28;20185;-76
2021/04/09 11:07:00;;;;;;;6.23;2.90;;;12.80;93.30;;;;;;5052578;28;20188;-77
2021/04/09 11:09:43;;;;;;;6.97;3.50;;;13.00;92.30;;;;;;5053758;28;20580;-75
2021/04/09 11:12:29;;;;;;;4.23;3.07;;;13.10;92.60;;;;;;5050443;28;20199;-77
2021/04/09 11:15:04;;;;;;;3.70;2.80;;;13.30;92.10;;;;;;5048032;28;20217;-75
2021/04/09 11:17:29;;;;;;;2.63;2.33;;;13.40;92.00;;;;;;5050652;28;20241;-76
2021/04/09 11:19:58;;;;;;;4.93;2.63;;;13.70;91.10;;;;;;5053114;28;20736;-76
2021/04/09 11:22:30;;;;;;;3.57;2.50;;;13.90;90.50;;;;;;5042142;28;20197;-77
2021/04/09 11:25:04;;;;;;;2.93;2.33;;;14.10;88.30;;;;;;5049213;28;20196;-77
2021/04/09 11:27:33;;;;;;;3.90;2.43;;;14.10;86.40;;;;;;5045013;28;20216;-76
2021/04/09 11:30:22;;;;;;;4.73;2.53;;;14.20;84.60;;;;;;5046452;28;20201;-76
2021/04/09 11:32:50;;;;;;;3.87;2.37;;;14.30;85.30;;;;;;5043777;28;20198;-76
2021/04/09 11:35:18;;;;;;;4.97;2.40;;;14.50;85.80;;;;;;5051578;28;20192;-76
2021/04/09 11:37:50;;;;;;;10.20;2.60;;;14.60;86.10;;;;;;5044435;28;20217;-77
2021/04/09 11:40:31;;;;;;;2.20;2.00;;;14.70;84.30;;;;;;5052249;28;20186;-77
2021/04/09 11:42:57;;;;;;;4.30;2.00;;;14.70;83.80;;;;;;5049210;28;20591;-77
2021/04/09 11:45:23;;;;;;;3.50;2.33;;;14.70;82.20;;;;;;5042720;28;20248;-76
2021/04/09 11:47:49;;;;;;;4.80;2.07;;;14.70;83.40;;;;;;5040123;28;20174;-77
2021/04/09 11:50:25;;;;;;;4.23;2.73;;;14.70;79.80;;;;;;5054315;28;20182;-76
2021/04/09 11:53:02;;;;;;;3.90;2.03;;;14.70;80.50;;;;;;5054467;28;20193;-77
2021/04/09 11:55:28;;;;;;;6.03;2.50;;;14.70;81.70;;;;;;5055035;28;20191;-75
2021/04/09 11:57:54;;;;;;;4.50;2.47;;;14.80;82.00;;;;;;5055259;28;20201;-75
2021/04/09 12:00:31;;;;;;;6.33;2.33;;;14.90;80.60;;;;;;5054110;28;20508;-76
2021/04/09 12:03:09;;;;;;;6.20;2.20;;;14.90;81.40;;;;;;5051965;28;20265;-76
2021/04/09 12:05:35;;;;;;;4.03;2.30;;;15.00;81.40;;;;;;5055039;28;20179;-75
2021/04/09 12:08:03;;;;;;;3.97;2.47;;;15.00;81.10;;;;;;5055118;28;20641;-77
2021/04/09 12:10:31;;;;;;;3.87;2.13;;;15.00;81.30;;;;;;5054724;28;20185;-77
2021/04/09 12:12:57;;;;;;;2.40;2.20;;;15.00;81.10;;;;;;5053574;28;20747;-77
2021/04/09 12:15:25;;;;;;;3.60;2.40;;;15.10;81.80;;;;;;5054958;28;20269;-77
2021/04/09 12:17:53;;;;;;;5.17;2.53;;;15.20;82.60;;;;;;5052406;28;20902;-77
2021/04/09 12:20:26;;;;;;;7.93;2.60;;;15.40;80.90;;;;;;5055174;28;20170;-77
2021/04/09 12:22:52;;;;;;;2.70;2.17;;;15.40;80.80;;;;;;5065179;28;20276;-77
2021/04/09 12:25:19;;;;;;;4.37;2.50;;;15.30;80.20;;;;;;5069884;28;20177;-77
2021/04/09 12:27:45;;;;;;;3.47;2.47;;;15.30;79.10;;;;;;5064895;28;20193;-77
2021/04/09 12:30:12;;;;;;;3.60;2.30;;;15.50;79.30;;;;;;5054738;28;20558;-78
2021/04/09 12:32:39;;;;;;;3.10;2.23;;;15.40;77.40;;;;;;5054788;28;20202;-77
2021/04/09 12:35:07;;;;;;;3.03;2.17;;;15.40;76.80;;;;;;5055034;28;20547;-77
2021/04/09 12:37:33;;;;;;;4.37;1.77;;;15.40;77.30;;;;;;5054498;28;20214;-77
2021/04/09 12:39:59;;;;;;;4.50;3.77;;;15.50;79.00;;;;;;5054684;28;20223;-77
2021/04/09 12:42:24;;;;;;;7.67;2.80;;;15.50;80.20;;;;;;5054343;28;20202;-77
2021/04/09 12:44:53;;;;;;;3.50;2.43;;;15.60;78.00;;;;;;5036685;28;20190;-77
2021/04/09 12:47:20;;;;;;;4.03;2.53;;;15.60;78.00;;;;;;5054570;28;20201;-77
2021/04/09 12:49:46;;;;;;;5.50;2.70;;;15.60;76.50;;;;;;5054355;28;20721;-77
2021/04/09 12:52:13;;;;;;;3.53;2.33;;;15.50;75.10;;;;;;5052926;28;20677;-78
2021/04/09 12:54:39;;;;;;;5.87;2.10;;;15.40;75.70;;;;;;5054395;28;20174;-77
2021/04/09 12:57:06;;;;;;;6.40;2.30;;;15.40;74.50;;;;;;5054270;28;20251;-77
2021/04/09 12:59:32;;;;;;;7.00;2.60;;;15.50;74.80;;;;;;5052081;28;20174;-78
2021/04/09 13:01:58;;;;;;;2.37;2.17;;;15.40;75.20;;;;;;5054234;28;20591;-77